Charles W. Baker (2M8)
Millington, TN
Field Elevation: 247
Lat: 35°16.74N  Long: 89°55.89W
CTAF/Unicom Freq: 122.8000
   
     For Weather-by-Phone, call 901-873-0903
Weather Advisories
9/18/2014 03:34 Z
Altimeter 29.97" Hg
Wind 360° @ 0 KT
Gusts --
Visibility 5 SM
Ceiling CLR
Temperature 18° C (64° F)
Dewpoint 18° C (64° F)
Relative Humidity 100%
Density Altitude --
Condensation Altitude --
  Wind and Runways
Indicated Runway = 36
History
 
 
More Info
All DigiWx sites map
NOAA Forecast
 
Airport IQ 5010
(M01) General Dewitt Spain Airport
(3M3) Collegedale Muni
 
about DigiWx
 
FAA Disclaimer: The data displayed is for advisory purposes only and is not to be used for flight planning or operations. For official data, please call 901-873-0903 to hear the current automated AWOS voice message.
  METAR 2M8 180334Z AUTO 36000KT 5SM CLR 18/18 A2997